This is the latest recevied weather packets stored in our database for station/object OK1FET-5. If no packets are shown the sender has not sent any weather packets the latest 1 day(s).
| Time | Temp. | Humidity | Pressure | Rain* | Wind** | Luminosity | Snow |
|---|---|---|---|---|---|---|---|
| 1778047309 | 15° C | 75% | 1007.4 hPa | - | - | - | - |
| 1778047014 | 15.56° C | 73% | 1007.3 hPa | - | - | - | - |
| 1778046425 | 16.67° C | 70% | 1007.3 hPa | - | - | - | - |
| 1778046130 | 15.56° C | 72% | 1007.3 hPa | - | - | - | - |
| 1778045836 | 15° C | 72% | 1007.2 hPa | - | - | - | - |
| 1778044658 | 13.89° C | 73% | 1007.2 hPa | - | - | - | - |
| 1778044069 | 14.44° C | 72% | 1006.9 hPa | - | - | - | - |
| 1778043480 | 14.44° C | 72% | 1006.8 hPa | - | - | - | - |
| 1778042891 | 14.44° C | 73% | 1006.8 hPa | - | - | - | - |
| 1778042597 | 13.33° C | 75% | 1006.8 hPa | - | - | - | - |
| 1778042302 | 12.78° C | 77% | 1006.9 hPa | - | - | - | - |
| 1778042008 | 12.22° C | 78% | 1006.9 hPa | - | - | - | - |
| 1778041714 | 12.78° C | 77% | 1007 hPa | - | - | - | - |
| 1778041420 | 12.22° C | 77% | 1006.9 hPa | - | - | - | - |
| 1778040831 | 12.22° C | 77% | 1006.8 hPa | - | - | - | - |
| 1778040537 | 12.78° C | 79% | 1006.7 hPa | - | - | - | - |
| 1778040243 | 12.22° C | 80% | 1006.6 hPa | - | - | - | - |
| 1778039654 | 11.67° C | 88% | 1006.4 hPa | - | - | - | - |
| 1778039360 | 11.11° C | 90% | 1006.5 hPa | - | - | - | - |
| 1778039066 | 10.56° C | 92% | 1006.5 hPa | - | - | - | - |
| 1778038772 | 10.56° C | 92% | 1006.6 hPa | - | - | - | - |
| 1778038478 | 10.56° C | 91% | 1006.6 hPa | - | - | - | - |
| 1778037595 | 10.56° C | 91% | 1006.6 hPa | - | - | - | - |
| 1778037301 | 10.56° C | 90% | 1006.6 hPa | - | - | - | - |
| 1778037007 | 10.56° C | 90% | 1006.6 hPa | - | - | - | - |
* Rain since midnight (hover to see other rain measurements)
** Current wind speed in m/s (hover to see current wind gust speed)